sensor_id;sensor_type;location;lat;lon;timestamp;temperature;humidity
17154;DHT22;8692;52.164;7.558;2023-12-20T00:01:22;6.70;99.90
17154;DHT22;8692;52.164;7.558;2023-12-20T00:03:51;6.70;99.90
17154;DHT22;8692;52.164;7.558;2023-12-20T00:06:19;6.70;99.90
17154;DHT22;8692;52.164;7.558;2023-12-20T00:08:47;6.70;99.90
17154;DHT22;8692;52.164;7.558;2023-12-20T00:11:16;6.70;99.90
17154;DHT22;8692;52.164;7.558;2023-12-20T00:13:44;6.70;99.90
17154;DHT22;8692;52.164;7.558;2023-12-20T00:16:15;6.70;99.90
17154;DHT22;8692;52.164;7.558;2023-12-20T00:18:43;6.70;99.90
17154;DHT22;8692;52.164;7.558;2023-12-20T00:21:12;6.60;99.90
17154;DHT22;8692;52.164;7.558;2023-12-20T00:23:40;6.70;99.90
17154;DHT22;8692;52.164;7.558;2023-12-20T00:26:07;6.70;99.90
17154;DHT22;8692;52.164;7.558;2023-12-20T00:28:37;6.70;99.90
17154;DHT22;8692;52.164;7.558;2023-12-20T00:31:05;6.70;99.90
17154;DHT22;8692;52.164;7.558;2023-12-20T00:33:33;6.70;99.90
17154;DHT22;8692;52.164;7.558;2023-12-20T00:36:01;6.70;99.90
17154;DHT22;8692;52.164;7.558;2023-12-20T00:38:29;6.70;99.90
17154;DHT22;8692;52.164;7.558;2023-12-20T00:40:57;6.70;99.90
17154;DHT22;8692;52.164;7.558;2023-12-20T00:43:25;6.70;99.90
17154;DHT22;8692;52.164;7.558;2023-12-20T00:45:54;6.70;99.90
17154;DHT22;8692;52.164;7.558;2023-12-20T00:48:23;6.70;99.90
17154;DHT22;8692;52.164;7.558;2023-12-20T00:50:53;6.70;99.90
17154;DHT22;8692;52.164;7.558;2023-12-20T00:53:21;6.70;99.90
17154;DHT22;8692;52.164;7.558;2023-12-20T00:55:49;6.70;99.90
17154;DHT22;8692;52.164;7.558;2023-12-20T00:58:17;6.60;99.90
17154;DHT22;8692;52.164;7.558;2023-12-20T01:00:45;6.60;99.90
17154;DHT22;8692;52.164;7.558;2023-12-20T01:03:15;6.60;99.90
17154;DHT22;8692;52.164;7.558;2023-12-20T01:05:43;6.60;99.90
17154;DHT22;8692;52.164;7.558;2023-12-20T01:08:11;6.50;99.90
17154;DHT22;8692;52.164;7.558;2023-12-20T01:10:39;6.50;99.90
17154;DHT22;8692;52.164;7.558;2023-12-20T01:13:07;6.50;99.90
17154;DHT22;8692;52.164;7.558;2023-12-20T01:15:35;6.50;99.90
17154;DHT22;8692;52.164;7.558;2023-12-20T01:18:04;6.40;99.90
17154;DHT22;8692;52.164;7.558;2023-12-20T01:20:33;6.50;99.90
17154;DHT22;8692;52.164;7.558;2023-12-20T01:23:01;6.40;99.90
17154;DHT22;8692;52.164;7.558;2023-12-20T01:25:29;6.40;99.90
17154;DHT22;8692;52.164;7.558;2023-12-20T01:27:57;6.40;99.90
17154;DHT22;8692;52.164;7.558;2023-12-20T01:30:25;6.40;99.90
17154;DHT22;8692;52.164;7.558;2023-12-20T01:32:53;6.30;99.90
17154;DHT22;8692;52.164;7.558;2023-12-20T01:35:21;6.30;99.90
17154;DHT22;8692;52.164;7.558;2023-12-20T01:37:50;6.30;99.90
17154;DHT22;8692;52.164;7.558;2023-12-20T01:40:19;6.30;99.90
17154;DHT22;8692;52.164;7.558;2023-12-20T01:42:48;6.20;99.90
17154;DHT22;8692;52.164;7.558;2023-12-20T01:45:25;6.20;99.90
17154;DHT22;8692;52.164;7.558;2023-12-20T01:47:53;6.20;99.90
17154;DHT22;8692;52.164;7.558;2023-12-20T01:50:22;6.20;99.90
17154;DHT22;8692;52.164;7.558;2023-12-20T01:52:52;6.10;99.90
17154;DHT22;8692;52.164;7.558;2023-12-20T01:55:22;6.10;99.90
17154;DHT22;8692;52.164;7.558;2023-12-20T01:57:51;6.10;99.90
17154;DHT22;8692;52.164;7.558;2023-12-20T02:00:19;6.00;99.90
17154;DHT22;8692;52.164;7.558;2023-12-20T02:02:50;6.00;99.90
17154;DHT22;8692;52.164;7.558;2023-12-20T02:05:20;6.00;99.90
17154;DHT22;8692;52.164;7.558;2023-12-20T02:07:49;6.00;99.90
17154;DHT22;8692;52.164;7.558;2023-12-20T02:10:18;6.00;99.90
17154;DHT22;8692;52.164;7.558;2023-12-20T02:12:46;6.00;99.90
17154;DHT22;8692;52.164;7.558;2023-12-20T02:15:14;5.90;99.90
17154;DHT22;8692;52.164;7.558;2023-12-20T02:17:42;6.00;99.90
17154;DHT22;8692;52.164;7.558;2023-12-20T02:20:11;5.90;99.90
17154;DHT22;8692;52.164;7.558;2023-12-20T02:22:41;5.90;99.90
17154;DHT22;8692;52.164;7.558;2023-12-20T02:25:09;5.90;99.90
17154;DHT22;8692;52.164;7.558;2023-12-20T02:27:38;5.90;99.90
17154;DHT22;8692;52.164;7.558;2023-12-20T02:30:08;5.90;99.90
17154;DHT22;8692;52.164;7.558;2023-12-20T02:32:36;5.90;99.90
17154;DHT22;8692;52.164;7.558;2023-12-20T02:35:05;5.90;99.90
17154;DHT22;8692;52.164;7.558;2023-12-20T02:37:33;5.90;99.90
17154;DHT22;8692;52.164;7.558;2023-12-20T02:40:03;5.90;99.90
17154;DHT22;8692;52.164;7.558;2023-12-20T02:42:31;5.90;99.90
17154;DHT22;8692;52.164;7.558;2023-12-20T02:44:59;5.80;99.90
17154;DHT22;8692;52.164;7.558;2023-12-20T02:47:27;5.90;99.90
17154;DHT22;8692;52.164;7.558;2023-12-20T02:49:56;5.80;99.90
17154;DHT22;8692;52.164;7.558;2023-12-20T02:52:25;5.80;99.90
17154;DHT22;8692;52.164;7.558;2023-12-20T02:54:53;5.80;99.90
17154;DHT22;8692;52.164;7.558;2023-12-20T02:57:22;5.80;99.90
17154;DHT22;8692;52.164;7.558;2023-12-20T02:59:50;5.80;99.90
17154;DHT22;8692;52.164;7.558;2023-12-20T03:02:18;5.80;99.90
17154;DHT22;8692;52.164;7.558;2023-12-20T03:04:46;5.80;99.90
17154;DHT22;8692;52.164;7.558;2023-12-20T03:07:14;5.80;99.90
17154;DHT22;8692;52.164;7.558;2023-12-20T03:09:42;5.80;99.90
17154;DHT22;8692;52.164;7.558;2023-12-20T03:12:32;5.80;99.90
17154;DHT22;8692;52.164;7.558;2023-12-20T03:14:59;5.80;99.90
17154;DHT22;8692;52.164;7.558;2023-12-20T03:17:26;5.70;99.90
17154;DHT22;8692;52.164;7.558;2023-12-20T03:19:54;5.70;99.90
17154;DHT22;8692;52.164;7.558;2023-12-20T03:22:22;5.70;99.90
17154;DHT22;8692;52.164;7.558;2023-12-20T03:24:50;5.70;99.90
17154;DHT22;8692;52.164;7.558;2023-12-20T03:27:18;5.70;99.90
17154;DHT22;8692;52.164;7.558;2023-12-20T03:29:48;5.70;99.90
17154;DHT22;8692;52.164;7.558;2023-12-20T03:32:16;5.70;99.90
17154;DHT22;8692;52.164;7.558;2023-12-20T03:34:43;5.70;99.90
17154;DHT22;8692;52.164;7.558;2023-12-20T03:37:12;5.70;99.90
17154;DHT22;8692;52.164;7.558;2023-12-20T03:39:41;5.70;99.90
17154;DHT22;8692;52.164;7.558;2023-12-20T03:42:09;5.70;99.90
17154;DHT22;8692;52.164;7.558;2023-12-20T03:44:38;5.70;99.90
17154;DHT22;8692;52.164;7.558;2023-12-20T03:47:08;5.70;99.90
17154;DHT22;8692;52.164;7.558;2023-12-20T03:49:35;5.70;99.90
17154;DHT22;8692;52.164;7.558;2023-12-20T03:52:05;5.70;99.90
17154;DHT22;8692;52.164;7.558;2023-12-20T03:54:34;5.70;99.90
17154;DHT22;8692;52.164;7.558;2023-12-20T03:57:02;5.70;99.90
17154;DHT22;8692;52.164;7.558;2023-12-20T03:59:34;5.70;99.90
17154;DHT22;8692;52.164;7.558;2023-12-20T04:02:03;5.70;99.90
17154;DHT22;8692;52.164;7.558;2023-12-20T04:04:32;5.70;99.90
17154;DHT22;8692;52.164;7.558;2023-12-20T04:07:00;5.80;99.90
17154;DHT22;8692;52.164;7.558;2023-12-20T04:09:28;5.80;99.90
17154;DHT22;8692;52.164;7.558;2023-12-20T04:11:56;5.80;99.90
17154;DHT22;8692;52.164;7.558;2023-12-20T04:14:24;5.80;99.90
17154;DHT22;8692;52.164;7.558;2023-12-20T04:16:53;5.80;99.90
17154;DHT22;8692;52.164;7.558;2023-12-20T04:19:21;5.80;99.90
17154;DHT22;8692;52.164;7.558;2023-12-20T04:21:50;5.90;99.90
17154;DHT22;8692;52.164;7.558;2023-12-20T04:24:18;5.90;99.90
17154;DHT22;8692;52.164;7.558;2023-12-20T04:26:46;5.80;99.90
17154;DHT22;8692;52.164;7.558;2023-12-20T04:29:14;5.90;99.90
17154;DHT22;8692;52.164;7.558;2023-12-20T04:31:42;5.90;99.90
17154;DHT22;8692;52.164;7.558;2023-12-20T04:34:10;5.90;99.90
17154;DHT22;8692;52.164;7.558;2023-12-20T04:36:38;5.90;99.90
17154;DHT22;8692;52.164;7.558;2023-12-20T04:39:08;5.90;99.90
17154;DHT22;8692;52.164;7.558;2023-12-20T04:41:36;6.00;99.90
17154;DHT22;8692;52.164;7.558;2023-12-20T04:44:04;6.00;99.90
17154;DHT22;8692;52.164;7.558;2023-12-20T04:46:32;6.00;99.90
17154;DHT22;8692;52.164;7.558;2023-12-20T04:49:00;6.00;99.90
17154;DHT22;8692;52.164;7.558;2023-12-20T04:51:28;6.00;99.90
17154;DHT22;8692;52.164;7.558;2023-12-20T04:53:56;6.10;99.90
17154;DHT22;8692;52.164;7.558;2023-12-20T04:56:26;6.10;99.90
17154;DHT22;8692;52.164;7.558;2023-12-20T04:58:54;6.10;99.90
17154;DHT22;8692;52.164;7.558;2023-12-20T05:01:22;6.10;99.90
17154;DHT22;8692;52.164;7.558;2023-12-20T05:03:50;6.00;99.90
17154;DHT22;8692;52.164;7.558;2023-12-20T05:06:18;6.00;99.90
17154;DHT22;8692;52.164;7.558;2023-12-20T05:08:46;6.00;99.90
17154;DHT22;8692;52.164;7.558;2023-12-20T05:11:14;6.10;99.90
17154;DHT22;8692;52.164;7.558;2023-12-20T05:13:44;6.10;99.90
17154;DHT22;8692;52.164;7.558;2023-12-20T05:16:16;6.10;99.90
17154;DHT22;8692;52.164;7.558;2023-12-20T05:18:48;6.10;99.90
17154;DHT22;8692;52.164;7.558;2023-12-20T05:21:16;6.10;99.90
17154;DHT22;8692;52.164;7.558;2023-12-20T05:23:44;6.20;99.90
17154;DHT22;8692;52.164;7.558;2023-12-20T05:26:13;6.20;99.90
17154;DHT22;8692;52.164;7.558;2023-12-20T05:28:41;6.20;99.90
17154;DHT22;8692;52.164;7.558;2023-12-20T05:31:10;6.20;99.90
17154;DHT22;8692;52.164;7.558;2023-12-20T05:33:38;6.20;99.90
17154;DHT22;8692;52.164;7.558;2023-12-20T05:36:06;6.20;99.90
17154;DHT22;8692;52.164;7.558;2023-12-20T05:38:38;6.20;99.90
17154;DHT22;8692;52.164;7.558;2023-12-20T05:41:06;6.20;99.90
17154;DHT22;8692;52.164;7.558;2023-12-20T05:43:33;6.20;99.90
17154;DHT22;8692;52.164;7.558;2023-12-20T05:46:02;6.20;99.90
17154;DHT22;8692;52.164;7.558;2023-12-20T05:48:31;6.20;99.90
17154;DHT22;8692;52.164;7.558;2023-12-20T05:50:59;6.20;99.90
17154;DHT22;8692;52.164;7.558;2023-12-20T05:53:27;6.20;99.90
17154;DHT22;8692;52.164;7.558;2023-12-20T05:55:55;6.20;99.90
17154;DHT22;8692;52.164;7.558;2023-12-20T05:58:23;6.20;99.90
17154;DHT22;8692;52.164;7.558;2023-12-20T06:00:51;6.20;99.90
17154;DHT22;8692;52.164;7.558;2023-12-20T06:03:19;6.20;99.90
17154;DHT22;8692;52.164;7.558;2023-12-20T06:05:48;6.20;99.90
17154;DHT22;8692;52.164;7.558;2023-12-20T06:08:18;6.30;99.90
17154;DHT22;8692;52.164;7.558;2023-12-20T06:10:46;6.30;99.90
17154;DHT22;8692;52.164;7.558;2023-12-20T06:13:14;6.30;99.90
17154;DHT22;8692;52.164;7.558;2023-12-20T06:15:42;6.30;99.90
17154;DHT22;8692;52.164;7.558;2023-12-20T06:18:10;6.30;99.90
17154;DHT22;8692;52.164;7.558;2023-12-20T06:20:39;6.30;99.90
17154;DHT22;8692;52.164;7.558;2023-12-20T06:23:08;6.30;99.90
17154;DHT22;8692;52.164;7.558;2023-12-20T06:25:36;6.30;99.90
17154;DHT22;8692;52.164;7.558;2023-12-20T06:28:04;6.30;99.90
17154;DHT22;8692;52.164;7.558;2023-12-20T06:30:33;6.30;99.90
17154;DHT22;8692;52.164;7.558;2023-12-20T06:33:01;6.30;99.90
17154;DHT22;8692;52.164;7.558;2023-12-20T06:35:29;6.30;99.90
17154;DHT22;8692;52.164;7.558;2023-12-20T06:38:00;6.40;99.90
17154;DHT22;8692;52.164;7.558;2023-12-20T06:40:29;6.40;99.90
17154;DHT22;8692;52.164;7.558;2023-12-20T06:42:57;6.40;99.90
17154;DHT22;8692;52.164;7.558;2023-12-20T06:45:38;6.40;99.90
17154;DHT22;8692;52.164;7.558;2023-12-20T06:48:06;6.40;99.90
17154;DHT22;8692;52.164;7.558;2023-12-20T06:50:34;6.40;99.90
17154;DHT22;8692;52.164;7.558;2023-12-20T06:53:06;6.40;99.90
17154;DHT22;8692;52.164;7.558;2023-12-20T06:55:36;6.40;99.90
17154;DHT22;8692;52.164;7.558;2023-12-20T06:58:04;6.50;99.90
17154;DHT22;8692;52.164;7.558;2023-12-20T07:00:33;6.40;99.90
17154;DHT22;8692;52.164;7.558;2023-12-20T07:03:01;6.50;99.90
17154;DHT22;8692;52.164;7.558;2023-12-20T07:05:29;6.50;99.90
17154;DHT22;8692;52.164;7.558;2023-12-20T07:07:57;6.40;99.90
17154;DHT22;8692;52.164;7.558;2023-12-20T07:10:25;6.40;99.90
17154;DHT22;8692;52.164;7.558;2023-12-20T07:12:55;6.50;99.90
17154;DHT22;8692;52.164;7.558;2023-12-20T07:15:23;6.50;99.90
17154;DHT22;8692;52.164;7.558;2023-12-20T07:17:53;6.50;99.90
17154;DHT22;8692;52.164;7.558;2023-12-20T07:20:21;6.50;99.90
17154;DHT22;8692;52.164;7.558;2023-12-20T07:22:49;6.50;99.90
17154;DHT22;8692;52.164;7.558;2023-12-20T07:25:17;6.50;99.90
17154;DHT22;8692;52.164;7.558;2023-12-20T07:27:46;6.50;99.90
17154;DHT22;8692;52.164;7.558;2023-12-20T07:30:16;6.50;99.90
17154;DHT22;8692;52.164;7.558;2023-12-20T07:32:45;6.50;99.90
17154;DHT22;8692;52.164;7.558;2023-12-20T07:35:15;6.50;99.90
17154;DHT22;8692;52.164;7.558;2023-12-20T07:37:43;6.50;99.90
17154;DHT22;8692;52.164;7.558;2023-12-20T07:40:12;6.50;99.90
17154;DHT22;8692;52.164;7.558;2023-12-20T07:42:40;6.50;99.90
17154;DHT22;8692;52.164;7.558;2023-12-20T07:45:08;6.50;99.90
17154;DHT22;8692;52.164;7.558;2023-12-20T07:47:38;6.50;99.90
17154;DHT22;8692;52.164;7.558;2023-12-20T07:50:07;6.50;99.90
17154;DHT22;8692;52.164;7.558;2023-12-20T07:52:36;6.60;99.90
17154;DHT22;8692;52.164;7.558;2023-12-20T07:55:04;6.60;99.90
17154;DHT22;8692;52.164;7.558;2023-12-20T07:57:32;6.60;99.90
17154;DHT22;8692;52.164;7.558;2023-12-20T08:00:00;6.60;99.90
17154;DHT22;8692;52.164;7.558;2023-12-20T08:02:30;6.50;99.90
17154;DHT22;8692;52.164;7.558;2023-12-20T08:05:00;6.60;99.90
17154;DHT22;8692;52.164;7.558;2023-12-20T08:07:28;6.60;99.90
17154;DHT22;8692;52.164;7.558;2023-12-20T08:09:57;6.60;99.90
17154;DHT22;8692;52.164;7.558;2023-12-20T08:12:25;6.60;99.90
17154;DHT22;8692;52.164;7.558;2023-12-20T08:14:54;6.60;99.90
17154;DHT22;8692;52.164;7.558;2023-12-20T08:17:23;6.60;99.90
17154;DHT22;8692;52.164;7.558;2023-12-20T08:19:51;6.60;99.90
17154;DHT22;8692;52.164;7.558;2023-12-20T08:22:21;6.60;99.90
17154;DHT22;8692;52.164;7.558;2023-12-20T08:24:49;6.60;99.90
17154;DHT22;8692;52.164;7.558;2023-12-20T08:27:17;6.60;99.90
17154;DHT22;8692;52.164;7.558;2023-12-20T08:29:45;6.70;99.90
17154;DHT22;8692;52.164;7.558;2023-12-20T08:32:13;6.70;99.90
17154;DHT22;8692;52.164;7.558;2023-12-20T08:34:41;6.70;99.90
17154;DHT22;8692;52.164;7.558;2023-12-20T08:37:09;6.70;99.90
17154;DHT22;8692;52.164;7.558;2023-12-20T08:39:39;6.70;99.90
17154;DHT22;8692;52.164;7.558;2023-12-20T08:42:10;6.70;99.90
17154;DHT22;8692;52.164;7.558;2023-12-20T08:44:38;6.70;99.90
17154;DHT22;8692;52.164;7.558;2023-12-20T08:47:06;6.70;99.90
17154;DHT22;8692;52.164;7.558;2023-12-20T08:49:34;6.70;99.90
17154;DHT22;8692;52.164;7.558;2023-12-20T08:52:03;6.70;99.90
17154;DHT22;8692;52.164;7.558;2023-12-20T08:54:31;6.80;99.90
17154;DHT22;8692;52.164;7.558;2023-12-20T08:57:00;6.80;99.90
17154;DHT22;8692;52.164;7.558;2023-12-20T08:59:28;6.80;99.90
17154;DHT22;8692;52.164;7.558;2023-12-20T09:01:56;6.80;99.90
17154;DHT22;8692;52.164;7.558;2023-12-20T09:04:25;6.80;99.90
17154;DHT22;8692;52.164;7.558;2023-12-20T09:06:53;6.80;99.90
17154;DHT22;8692;52.164;7.558;2023-12-20T09:09:21;6.80;99.90
17154;DHT22;8692;52.164;7.558;2023-12-20T09:11:49;6.80;99.90
17154;DHT22;8692;52.164;7.558;2023-12-20T09:14:21;6.80;99.90
17154;DHT22;8692;52.164;7.558;2023-12-20T09:16:49;6.80;99.90
17154;DHT22;8692;52.164;7.558;2023-12-20T09:19:18;6.80;99.90
17154;DHT22;8692;52.164;7.558;2023-12-20T09:21:46;6.90;99.90
17154;DHT22;8692;52.164;7.558;2023-12-20T09:24:14;6.90;99.90
17154;DHT22;8692;52.164;7.558;2023-12-20T09:26:41;6.90;99.90
17154;DHT22;8692;52.164;7.558;2023-12-20T09:29:10;6.90;99.90
17154;DHT22;8692;52.164;7.558;2023-12-20T09:31:43;6.90;99.90
17154;DHT22;8692;52.164;7.558;2023-12-20T09:34:15;6.90;99.90
17154;DHT22;8692;52.164;7.558;2023-12-20T09:36:43;6.90;99.90
17154;DHT22;8692;52.164;7.558;2023-12-20T09:39:13;6.90;99.90
17154;DHT22;8692;52.164;7.558;2023-12-20T09:41:43;6.90;99.90
17154;DHT22;8692;52.164;7.558;2023-12-20T09:44:15;6.90;99.90
17154;DHT22;8692;52.164;7.558;2023-12-20T09:46:50;6.90;99.90
17154;DHT22;8692;52.164;7.558;2023-12-20T09:49:18;6.90;99.90
17154;DHT22;8692;52.164;7.558;2023-12-20T09:51:47;7.00;99.90
17154;DHT22;8692;52.164;7.558;2023-12-20T09:54:17;7.00;99.90
17154;DHT22;8692;52.164;7.558;2023-12-20T09:56:45;7.00;99.90
17154;DHT22;8692;52.164;7.558;2023-12-20T09:59:14;7.00;99.90
17154;DHT22;8692;52.164;7.558;2023-12-20T10:01:42;6.90;99.90
17154;DHT22;8692;52.164;7.558;2023-12-20T10:04:12;6.90;99.90
17154;DHT22;8692;52.164;7.558;2023-12-20T10:06:55;6.90;99.90
17154;DHT22;8692;52.164;7.558;2023-12-20T10:09:25;6.90;99.90
17154;DHT22;8692;52.164;7.558;2023-12-20T10:11:54;6.80;99.90
17154;DHT22;8692;52.164;7.558;2023-12-20T10:14:23;6.80;99.90
17154;DHT22;8692;52.164;7.558;2023-12-20T10:16:51;6.80;99.90
17154;DHT22;8692;52.164;7.558;2023-12-20T10:19:21;6.80;99.90
17154;DHT22;8692;52.164;7.558;2023-12-20T10:21:49;6.80;99.90
17154;DHT22;8692;52.164;7.558;2023-12-20T10:24:18;6.80;99.90
17154;DHT22;8692;52.164;7.558;2023-12-20T10:26:46;6.80;99.90
17154;DHT22;8692;52.164;7.558;2023-12-20T10:29:14;6.80;99.90
17154;DHT22;8692;52.164;7.558;2023-12-20T10:31:42;6.80;99.90
17154;DHT22;8692;52.164;7.558;2023-12-20T10:34:11;6.80;99.90
17154;DHT22;8692;52.164;7.558;2023-12-20T10:36:41;6.80;99.90
17154;DHT22;8692;52.164;7.558;2023-12-20T10:39:10;6.80;99.90
17154;DHT22;8692;52.164;7.558;2023-12-20T10:41:39;6.80;99.90
17154;DHT22;8692;52.164;7.558;2023-12-20T10:44:08;6.80;99.90
17154;DHT22;8692;52.164;7.558;2023-12-20T10:46:39;6.80;99.90
17154;DHT22;8692;52.164;7.558;2023-12-20T10:49:08;6.80;99.90
17154;DHT22;8692;52.164;7.558;2023-12-20T10:51:38;6.90;99.90
17154;DHT22;8692;52.164;7.558;2023-12-20T10:54:07;6.90;99.90
17154;DHT22;8692;52.164;7.558;2023-12-20T10:56:37;6.90;99.90
17154;DHT22;8692;52.164;7.558;2023-12-20T10:59:07;6.90;99.90
17154;DHT22;8692;52.164;7.558;2023-12-20T11:01:38;6.90;99.90
17154;DHT22;8692;52.164;7.558;2023-12-20T11:04:10;7.00;99.90
17154;DHT22;8692;52.164;7.558;2023-12-20T11:06:47;7.00;99.90
17154;DHT22;8692;52.164;7.558;2023-12-20T11:09:22;7.00;99.90
17154;DHT22;8692;52.164;7.558;2023-12-20T11:12:02;7.10;99.90
17154;DHT22;8692;52.164;7.558;2023-12-20T11:14:38;7.10;99.90
17154;DHT22;8692;52.164;7.558;2023-12-20T11:17:08;7.20;99.90
17154;DHT22;8692;52.164;7.558;2023-12-20T11:19:38;7.30;99.90
17154;DHT22;8692;52.164;7.558;2023-12-20T11:22:05;7.40;99.90
17154;DHT22;8692;52.164;7.558;2023-12-20T11:24:35;7.50;99.90
17154;DHT22;8692;52.164;7.558;2023-12-20T11:27:04;7.50;99.90
17154;DHT22;8692;52.164;7.558;2023-12-20T11:29:33;7.40;99.90
17154;DHT22;8692;52.164;7.558;2023-12-20T11:32:02;7.40;99.90
17154;DHT22;8692;52.164;7.558;2023-12-20T11:34:33;7.40;99.90
17154;DHT22;8692;52.164;7.558;2023-12-20T11:37:04;7.40;99.90
17154;DHT22;8692;52.164;7.558;2023-12-20T11:39:32;7.40;99.90
17154;DHT22;8692;52.164;7.558;2023-12-20T11:42:06;7.40;99.90
17154;DHT22;8692;52.164;7.558;2023-12-20T11:44:35;7.40;99.90
17154;DHT22;8692;52.164;7.558;2023-12-20T11:47:04;7.40;99.90
17154;DHT22;8692;52.164;7.558;2023-12-20T11:49:32;7.40;99.90
17154;DHT22;8692;52.164;7.558;2023-12-20T11:52:00;7.40;99.90
17154;DHT22;8692;52.164;7.558;2023-12-20T11:54:30;7.40;99.90
17154;DHT22;8692;52.164;7.558;2023-12-20T11:56:58;7.40;99.90
17154;DHT22;8692;52.164;7.558;2023-12-20T11:59:27;7.50;99.90
17154;DHT22;8692;52.164;7.558;2023-12-20T12:01:55;7.50;99.90
17154;DHT22;8692;52.164;7.558;2023-12-20T12:04:28;7.60;99.90
17154;DHT22;8692;52.164;7.558;2023-12-20T12:06:56;7.60;99.90
17154;DHT22;8692;52.164;7.558;2023-12-20T12:09:24;7.50;99.90
17154;DHT22;8692;52.164;7.558;2023-12-20T12:11:52;7.50;99.90
17154;DHT22;8692;52.164;7.558;2023-12-20T12:14:20;7.50;99.90
17154;DHT22;8692;52.164;7.558;2023-12-20T12:16:49;7.50;99.90
17154;DHT22;8692;52.164;7.558;2023-12-20T12:19:20;7.50;99.90
17154;DHT22;8692;52.164;7.558;2023-12-20T12:21:49;7.50;99.90
17154;DHT22;8692;52.164;7.558;2023-12-20T12:24:20;7.30;99.90
17154;DHT22;8692;52.164;7.558;2023-12-20T12:26:52;7.20;99.90
17154;DHT22;8692;52.164;7.558;2023-12-20T12:29:20;7.10;99.90
17154;DHT22;8692;52.164;7.558;2023-12-20T12:31:49;7.00;99.90
17154;DHT22;8692;52.164;7.558;2023-12-20T12:34:17;6.90;99.90
17154;DHT22;8692;52.164;7.558;2023-12-20T12:36:46;6.80;99.90
17154;DHT22;8692;52.164;7.558;2023-12-20T12:39:15;6.80;99.90
17154;DHT22;8692;52.164;7.558;2023-12-20T12:41:45;6.70;99.90
17154;DHT22;8692;52.164;7.558;2023-12-20T12:44:13;6.70;99.90
17154;DHT22;8692;52.164;7.558;2023-12-20T12:46:44;6.60;99.90
17154;DHT22;8692;52.164;7.558;2023-12-20T12:49:14;6.60;99.90
17154;DHT22;8692;52.164;7.558;2023-12-20T12:51:42;6.50;99.90
17154;DHT22;8692;52.164;7.558;2023-12-20T12:54:11;6.50;99.90
17154;DHT22;8692;52.164;7.558;2023-12-20T12:56:40;6.50;99.90
17154;DHT22;8692;52.164;7.558;2023-12-20T12:59:08;6.50;99.90
17154;DHT22;8692;52.164;7.558;2023-12-20T13:01:36;6.50;99.90
17154;DHT22;8692;52.164;7.558;2023-12-20T13:04:06;6.50;99.90
17154;DHT22;8692;52.164;7.558;2023-12-20T13:06:39;6.50;99.90
17154;DHT22;8692;52.164;7.558;2023-12-20T13:09:09;6.50;99.90
17154;DHT22;8692;52.164;7.558;2023-12-20T13:11:37;6.50;99.90
17154;DHT22;8692;52.164;7.558;2023-12-20T13:14:05;6.50;99.90
17154;DHT22;8692;52.164;7.558;2023-12-20T13:16:37;6.50;99.90
17154;DHT22;8692;52.164;7.558;2023-12-20T13:19:05;6.50;99.90
17154;DHT22;8692;52.164;7.558;2023-12-20T13:21:33;6.50;99.90
17154;DHT22;8692;52.164;7.558;2023-12-20T13:24:03;6.50;99.90
17154;DHT22;8692;52.164;7.558;2023-12-20T13:26:31;6.50;99.90
17154;DHT22;8692;52.164;7.558;2023-12-20T13:28:59;6.50;99.90
17154;DHT22;8692;52.164;7.558;2023-12-20T13:31:27;6.50;99.90
17154;DHT22;8692;52.164;7.558;2023-12-20T13:33:55;6.50;99.90
17154;DHT22;8692;52.164;7.558;2023-12-20T13:36:24;6.50;99.90
17154;DHT22;8692;52.164;7.558;2023-12-20T13:38:53;6.50;99.90
17154;DHT22;8692;52.164;7.558;2023-12-20T13:41:22;6.50;99.90
17154;DHT22;8692;52.164;7.558;2023-12-20T13:43:50;6.50;99.90
17154;DHT22;8692;52.164;7.558;2023-12-20T13:46:18;6.50;99.90
17154;DHT22;8692;52.164;7.558;2023-12-20T13:48:46;6.50;99.90
17154;DHT22;8692;52.164;7.558;2023-12-20T13:51:14;6.50;99.90
17154;DHT22;8692;52.164;7.558;2023-12-20T13:53:42;6.50;99.90
17154;DHT22;8692;52.164;7.558;2023-12-20T13:56:10;6.50;99.90
17154;DHT22;8692;52.164;7.558;2023-12-20T13:58:39;6.50;99.90
17154;DHT22;8692;52.164;7.558;2023-12-20T14:01:09;6.50;99.90
17154;DHT22;8692;52.164;7.558;2023-12-20T14:03:39;6.50;99.90
17154;DHT22;8692;52.164;7.558;2023-12-20T14:06:08;6.50;99.90
17154;DHT22;8692;52.164;7.558;2023-12-20T14:08:36;6.50;99.90
17154;DHT22;8692;52.164;7.558;2023-12-20T14:11:04;6.50;99.90
17154;DHT22;8692;52.164;7.558;2023-12-20T14:13:32;6.50;99.90
17154;DHT22;8692;52.164;7.558;2023-12-20T14:16:01;6.50;99.90
17154;DHT22;8692;52.164;7.558;2023-12-20T14:18:30;6.50;99.90
17154;DHT22;8692;52.164;7.558;2023-12-20T14:20:58;6.50;99.90
17154;DHT22;8692;52.164;7.558;2023-12-20T14:23:26;6.50;99.90
17154;DHT22;8692;52.164;7.558;2023-12-20T14:25:54;6.50;99.90
17154;DHT22;8692;52.164;7.558;2023-12-20T14:28:23;6.50;99.90
17154;DHT22;8692;52.164;7.558;2023-12-20T14:30:51;6.50;99.90
17154;DHT22;8692;52.164;7.558;2023-12-20T14:33:20;6.50;99.90
17154;DHT22;8692;52.164;7.558;2023-12-20T14:35:48;6.50;99.90
17154;DHT22;8692;52.164;7.558;2023-12-20T14:38:17;6.50;99.90
17154;DHT22;8692;52.164;7.558;2023-12-20T14:40:46;6.50;99.90
17154;DHT22;8692;52.164;7.558;2023-12-20T14:43:14;6.50;99.90
17154;DHT22;8692;52.164;7.558;2023-12-20T14:45:43;6.50;99.90
17154;DHT22;8692;52.164;7.558;2023-12-20T14:48:11;6.60;99.90
17154;DHT22;8692;52.164;7.558;2023-12-20T14:50:40;6.60;99.90
17154;DHT22;8692;52.164;7.558;2023-12-20T14:53:09;6.60;99.90
17154;DHT22;8692;52.164;7.558;2023-12-20T14:55:37;6.60;99.90
17154;DHT22;8692;52.164;7.558;2023-12-20T14:58:06;6.60;99.90
17154;DHT22;8692;52.164;7.558;2023-12-20T15:00:34;6.60;99.90
17154;DHT22;8692;52.164;7.558;2023-12-20T15:03:02;6.70;99.90
17154;DHT22;8692;52.164;7.558;2023-12-20T15:05:31;6.70;99.90
17154;DHT22;8692;52.164;7.558;2023-12-20T15:08:01;6.70;99.90
17154;DHT22;8692;52.164;7.558;2023-12-20T15:10:29;6.70;99.90
17154;DHT22;8692;52.164;7.558;2023-12-20T15:12:57;6.70;99.90
17154;DHT22;8692;52.164;7.558;2023-12-20T15:15:25;6.70;99.90
17154;DHT22;8692;52.164;7.558;2023-12-20T15:17:55;6.70;99.90
17154;DHT22;8692;52.164;7.558;2023-12-20T15:20:23;6.70;99.90
17154;DHT22;8692;52.164;7.558;2023-12-20T15:22:50;6.80;99.90
17154;DHT22;8692;52.164;7.558;2023-12-20T15:25:20;6.80;99.90
17154;DHT22;8692;52.164;7.558;2023-12-20T15:27:48;6.80;99.90
17154;DHT22;8692;52.164;7.558;2023-12-20T15:30:19;6.80;99.90
17154;DHT22;8692;52.164;7.558;2023-12-20T15:32:47;6.80;99.90
17154;DHT22;8692;52.164;7.558;2023-12-20T15:35:15;6.80;99.90
17154;DHT22;8692;52.164;7.558;2023-12-20T15:37:43;6.90;99.90
17154;DHT22;8692;52.164;7.558;2023-12-20T15:40:12;6.90;99.90
17154;DHT22;8692;52.164;7.558;2023-12-20T15:42:41;6.90;99.90
17154;DHT22;8692;52.164;7.558;2023-12-20T15:45:10;6.90;99.90
17154;DHT22;8692;52.164;7.558;2023-12-20T15:47:38;7.00;99.90
17154;DHT22;8692;52.164;7.558;2023-12-20T15:50:06;7.00;99.90
17154;DHT22;8692;52.164;7.558;2023-12-20T15:52:35;7.00;99.90
17154;DHT22;8692;52.164;7.558;2023-12-20T15:55:05;7.10;99.90
17154;DHT22;8692;52.164;7.558;2023-12-20T15:57:34;7.00;99.90
17154;DHT22;8692;52.164;7.558;2023-12-20T16:00:19;7.00;99.90
17154;DHT22;8692;52.164;7.558;2023-12-20T16:02:47;7.00;99.90
17154;DHT22;8692;52.164;7.558;2023-12-20T16:05:15;7.10;99.90
17154;DHT22;8692;52.164;7.558;2023-12-20T16:07:43;7.10;99.90
17154;DHT22;8692;52.164;7.558;2023-12-20T16:10:12;7.10;99.90
17154;DHT22;8692;52.164;7.558;2023-12-20T16:12:40;7.10;99.90